Time;durP1;ratioP1;P1;durP2;ratioP2;P2;SDS_P1;SDS_P2;PMS_P1;PMS_P2;Temp;Humidity;BMP_temperature;BMP_pressure;BME280_temperature;BME280_humidity;BME280_pressure;Samples;Min_cycle;Max_cycle;Signal;HPM_P1;HPM_P2
2023/07/22 00:00:05;;;;;;;14.07;7.65;;;16.00;82.80;;;16.89;57.79;100388.88;4974551;28;20145;-85
2023/07/22 00:02:33;;;;;;;12.07;8.38;;;15.90;82.80;;;16.87;57.74;100396.38;4975083;28;20090;-85
2023/07/22 00:05:00;;;;;;;11.80;8.25;;;15.90;82.90;;;16.85;57.79;100390.44;4989403;28;20177;-85
2023/07/22 00:07:27;;;;;;;14.52;8.55;;;15.90;82.90;;;16.84;57.87;100394.22;4973540;28;20402;-85
2023/07/22 00:09:56;;;;;;;10.75;8.10;;;15.90;83.10;;;16.83;57.95;100396.06;4974529;28;20066;-85
2023/07/22 00:12:25;;;;;;;13.57;8.68;;;15.90;83.30;;;16.83;58.19;100387.19;4973264;28;20500;-85
2023/07/22 00:14:53;;;;;;;14.57;9.10;;;15.90;83.30;;;16.82;58.38;100381.00;4974635;28;20073;-85
2023/07/22 00:17:22;;;;;;;14.10;8.60;;;15.90;83.50;;;16.83;58.36;100379.09;4973578;28;20049;-85
2023/07/22 00:19:49;;;;;;;17.33;8.35;;;15.90;83.50;;;16.83;58.32;100374.53;4972942;28;20050;-85
2023/07/22 00:22:16;;;;;;;12.40;8.23;;;15.90;83.60;;;16.84;58.48;100380.75;4974284;28;20054;-85
2023/07/22 00:24:44;;;;;;;16.80;8.07;;;15.90;83.50;;;16.82;58.59;100381.00;4974546;28;20117;-86
2023/07/22 00:27:12;;;;;;;13.70;8.25;;;15.90;83.70;;;16.82;58.75;100378.28;4973243;28;20050;-85
2023/07/22 00:29:40;;;;;;;12.80;8.43;;;15.90;83.90;;;16.81;58.88;100375.88;4973166;28;20045;-85
2023/07/22 00:32:09;;;;;;;12.70;8.10;;;15.80;83.90;;;16.81;58.87;100371.28;4954478;28;20058;-85
2023/07/22 00:34:37;;;;;;;13.23;7.82;;;15.90;84.10;;;16.82;59.08;100375.59;4953769;28;20047;-85
2023/07/22 00:37:05;;;;;;;13.68;8.40;;;15.90;84.30;;;16.83;59.07;100371.03;4953858;29;20043;-85
2023/07/22 00:39:32;;;;;;;10.40;7.95;;;15.90;84.30;;;16.81;58.97;100373.97;4954559;28;20043;-85
2023/07/22 00:41:59;;;;;;;12.77;8.18;;;15.90;84.10;;;16.82;59.10;100372.09;4954781;28;20051;-85
2023/07/22 00:44:28;;;;;;;11.70;7.82;;;15.90;84.30;;;16.80;59.31;100372.34;4953267;28;20374;-85
2023/07/22 00:46:58;;;;;;;12.32;8.10;;;15.90;84.20;;;16.81;59.14;100370.47;4969822;28;20086;-85
2023/07/22 00:49:28;;;;;;;13.07;8.90;;;15.90;84.10;;;16.79;59.07;100373.44;4973161;28;20045;-85
2023/07/22 00:51:57;;;;;;;12.68;8.10;;;15.90;84.10;;;16.79;58.87;100368.03;4973506;28;20118;-85
2023/07/22 00:54:24;;;;;;;14.55;8.75;;;15.90;83.90;;;16.79;58.82;100362.66;4972738;28;20082;-85
2023/07/22 00:56:52;;;;;;;12.68;9.27;;;15.90;83.60;;;16.77;58.76;100361.28;4972803;28;20047;-85
2023/07/22 00:59:20;;;;;;;17.17;9.45;;;15.90;84.00;;;16.78;59.04;100357.50;4972433;28;20082;-85
2023/07/22 01:01:49;;;;;;;16.75;8.60;;;15.90;84.10;;;16.77;58.90;100354.00;4972876;28;20039;-85
2023/07/22 01:04:20;;;;;;;12.18;7.80;;;15.90;83.90;;;16.78;58.47;100358.31;4972580;28;20042;-85
2023/07/22 01:06:49;;;;;;;15.52;8.40;;;15.90;83.50;;;16.78;58.90;100355.63;4972509;28;20069;-85
2023/07/22 01:09:16;;;;;;;15.85;8.50;;;15.90;83.70;;;16.76;58.58;100352.38;4972114;28;20050;-85
2023/07/22 01:11:43;;;;;;;18.90;8.70;;;15.90;83.50;;;16.73;58.50;100356.38;4972413;28;20047;-86
2023/07/22 01:14:11;;;;;;;13.88;8.30;;;15.90;83.20;;;16.73;58.28;100350.19;4988640;28;20074;-85
2023/07/22 01:16:38;;;;;;;13.90;8.55;;;15.90;83.10;;;16.69;58.04;100347.19;4972435;28;20042;-85
2023/07/22 01:19:09;;;;;;;14.10;8.77;;;15.90;83.10;;;16.66;57.92;100350.38;4971962;28;20051;-85
2023/07/22 01:21:37;;;;;;;13.88;8.45;;;15.90;82.30;;;16.67;58.03;100343.91;4971982;28;20090;-85
2023/07/22 01:24:06;;;;;;;13.48;8.52;;;15.90;82.70;;;16.67;57.86;100348.50;4955818;28;20520;-85
2023/07/22 01:26:34;;;;;;;12.10;8.45;;;15.80;82.20;;;16.68;58.25;100344.72;4972075;28;20503;-85
2023/07/22 01:29:06;;;;;;;13.80;8.32;;;15.90;82.60;;;16.71;57.88;100344.22;4988171;28;20070;-86
2023/07/22 01:31:36;;;;;;;;;;;15.90;82.20;;;16.69;58.23;100341.00;4972593;28;20054;-85
2023/07/22 01:34:04;;;;;;;14.88;8.57;;;15.90;82.70;;;16.69;58.30;100341.00;4972167;28;19930;-85
2023/07/22 01:36:32;;;;;;;13.30;8.60;;;15.90;82.70;;;16.68;58.01;100344.72;4973381;28;20043;-85
2023/07/22 01:39:00;;;;;;;13.15;8.63;;;15.90;82.20;;;16.66;57.69;100345.00;4971759;28;20039;-85
2023/07/22 01:41:29;;;;;;;15.43;8.13;;;15.90;81.90;;;16.67;57.87;100337.72;4972450;28;20054;-85
2023/07/22 01:43:56;;;;;;;12.80;8.80;;;15.90;82.60;;;16.64;58.18;100338.22;4971933;28;20045;-85
2023/07/22 01:46:24;;;;;;;14.05;8.25;;;15.90;82.50;;;16.65;58.11;100342.56;4972110;28;20054;-85
2023/07/22 01:48:51;;;;;;;17.45;8.88;;;15.90;82.50;;;16.62;57.43;100341.16;4971786;28;20051;-85
2023/07/22 01:51:18;;;;;;;12.80;8.23;;;15.80;81.80;;;16.62;58.33;100338.47;4972054;28;20030;-86
2023/07/22 01:53:46;;;;;;;14.18;8.63;;;15.90;82.90;;;16.63;58.40;100341.97;4973187;28;20053;-85
2023/07/22 01:56:13;;;;;;;15.18;8.90;;;15.90;82.90;;;16.60;58.06;100337.13;4971425;28;20050;-85
2023/07/22 01:58:41;;;;;;;13.32;9.32;;;15.90;82.70;;;16.62;58.33;100329.59;4971776;28;20051;-85
2023/07/22 02:01:09;;;;;;;15.63;8.90;;;15.90;82.70;;;16.64;58.64;100338.22;4988033;28;20046;-85
2023/07/22 02:03:36;;;;;;;16.98;9.00;;;15.90;82.90;;;16.58;58.07;100331.16;4970830;28;20113;-85
2023/07/22 02:06:04;;;;;;;12.40;8.40;;;15.90;82.10;;;16.55;58.89;100337.06;4971825;28;20101;-85
2023/07/22 02:08:32;;;;;;;16.58;8.75;;;15.90;83.00;;;16.58;58.42;100339.25;4971498;28;20150;-85
2023/07/22 02:11:03;;;;;;;15.02;8.57;;;15.90;82.80;;;16.60;58.73;100337.13;4971560;28;20050;-85
2023/07/22 02:13:31;;;;;;;14.95;9.20;;;15.90;82.90;;;16.56;58.30;100338.69;4987856;28;20571;-85
2023/07/22 02:16:00;;;;;;;12.77;8.63;;;15.90;82.50;;;16.50;58.57;100335.13;4971699;28;20042;-85
2023/07/22 02:18:28;;;;;;;16.25;8.80;;;15.80;82.50;;;16.52;58.58;100337.56;4971485;28;20082;-86
2023/07/22 02:20:55;;;;;;;14.07;9.15;;;15.90;82.70;;;16.51;58.10;100330.56;4971519;28;20046;-85
2023/07/22 02:23:23;;;;;;;15.85;9.07;;;15.90;81.80;;;16.51;58.67;100323.31;4987915;28;20055;-85
2023/07/22 02:25:51;;;;;;;14.52;8.77;;;15.90;82.30;;;16.44;57.14;100328.06;4972815;28;20073;-85
2023/07/22 02:28:21;;;;;;;15.18;8.98;;;15.90;81.20;;;16.32;57.95;100330.91;4971330;28;20046;-85
2023/07/22 02:30:48;;;;;;;14.80;8.68;;;15.80;81.40;;;16.37;58.33;100330.16;4987623;28;20150;-85
2023/07/22 02:33:17;;;;;;;16.95;9.05;;;15.80;82.00;;;16.38;57.69;100329.06;4987640;28;20141;-85
2023/07/22 02:35:44;;;;;;;13.25;9.48;;;15.80;81.20;;;16.26;57.63;100326.53;4987708;28;20793;-85
2023/07/22 02:38:12;;;;;;;15.35;9.38;;;15.70;81.20;;;16.16;58.32;100331.81;4972488;28;20555;-85
2023/07/22 02:40:39;;;;;;;17.15;10.10;;;15.70;81.80;;;16.23;58.52;100332.41;4971225;28;20520;-85
2023/07/22 02:43:07;;;;;;;15.10;9.18;;;15.70;82.10;;;16.31;58.53;100333.84;4971241;28;20073;-85
2023/07/22 02:45:35;;;;;;;16.52;9.40;;;15.80;82.10;;;16.38;58.35;100337.97;4971351;28;20073;-85
2023/07/22 02:48:03;;;;;;;12.07;8.50;;;15.80;82.00;;;16.37;58.29;100333.66;4987567;28;20823;-85
2023/07/22 02:50:32;;;;;;;13.80;8.80;;;15.80;81.60;;;16.44;58.64;100330.75;4970839;28;20043;-85
2023/07/22 02:52:59;;;;;;;14.50;8.73;;;15.90;82.40;;;16.46;58.23;100332.13;4971374;28;20117;-86
2023/07/22 02:55:27;;;;;;;16.35;9.43;;;15.90;81.90;;;16.44;58.00;100338.81;4971253;28;20066;-85
2023/07/22 02:57:54;;;;;;;14.55;8.57;;;15.80;81.50;;;16.41;58.15;100339.34;4987251;28;20050;-85
2023/07/22 03:00:24;;;;;;;14.55;8.05;;;15.80;81.60;;;16.37;57.98;100336.34;4987428;28;20406;-85
2023/07/22 03:02:53;;;;;;;14.10;8.65;;;15.80;81.40;;;16.45;58.11;100340.47;4971288;28;20492;-85
2023/07/22 03:05:21;;;;;;;15.07;8.65;;;15.90;81.60;;;16.37;57.61;100338.22;4972515;28;20050;-85
2023/07/22 03:07:49;;;;;;;11.93;8.57;;;15.80;81.00;;;16.40;58.15;100341.22;4974422;28;20042;-85
2023/07/22 03:10:17;;;;;;;18.20;8.98;;;15.80;81.80;;;16.42;57.98;100336.41;4981813;28;20531;-85
2023/07/22 03:12:44;;;;;;;13.10;8.57;;;15.80;81.60;;;16.41;57.27;100339.34;4997463;28;20411;-85
2023/07/22 03:15:12;;;;;;;14.80;8.43;;;15.80;80.70;;;16.41;57.84;100345.53;4985450;28;20051;-85
2023/07/22 03:17:41;;;;;;;11.63;8.18;;;15.80;81.50;;;16.45;58.19;100341.28;4995002;28;20849;-85
2023/07/22 03:20:14;;;;;;;15.98;9.40;;;15.90;81.80;;;16.47;58.66;100339.13;4975065;28;20039;-85
2023/07/22 03:22:42;;;;;;;12.20;8.38;;;15.90;82.60;;;16.46;57.65;100340.22;4976616;28;20074;-85
2023/07/22 03:25:11;;;;;;;13.30;8.20;;;15.90;81.10;;;16.48;57.21;100334.56;4974773;28;20046;-85
2023/07/22 03:27:39;;;;;;;13.32;7.88;;;15.90;80.80;;;16.49;57.54;100341.56;4991133;28;20058;-85
2023/07/22 03:30:10;;;;;;;14.73;8.05;;;15.90;81.10;;;16.50;57.85;100342.41;4974297;28;20043;-85
2023/07/22 03:32:37;;;;;;;13.40;7.90;;;15.90;81.40;;;16.51;57.56;100344.84;4974676;28;20133;-85
2023/07/22 03:35:05;;;;;;;12.70;7.70;;;15.90;80.80;;;16.48;57.41;100351.53;4974329;28;20053;-85
2023/07/22 03:37:33;;;;;;;12.30;8.27;;;15.90;80.80;;;16.47;57.20;100349.09;4974480;28;20066;-85
2023/07/22 03:40:00;;;;;;;12.60;7.88;;;15.90;80.80;;;16.46;57.54;100342.09;4974250;28;20448;-85
2023/07/22 03:42:28;;;;;;;13.00;7.85;;;15.90;80.90;;;16.41;57.42;100350.94;4974278;28;20400;-85
2023/07/22 03:44:56;;;;;;;13.02;7.45;;;15.90;80.60;;;16.42;57.20;100341.78;4990187;28;20146;-85
2023/07/22 03:47:23;;;;;;;12.02;7.47;;;15.90;80.40;;;16.42;56.94;100352.53;4973912;28;20101;-85
2023/07/22 03:49:51;;;;;;;11.73;7.47;;;15.90;80.30;;;16.42;57.08;100355.25;4990028;28;20078;-85
2023/07/22 03:52:18;;;;;;;12.48;7.63;;;15.90;80.40;;;16.45;57.30;100354.75;4973867;28;20055;-86
2023/07/22 03:54:45;;;;;;;17.98;7.40;;;15.90;80.60;;;16.41;57.09;100355.50;4989877;28;20113;-86
2023/07/22 03:57:13;;;;;;;13.38;7.35;;;15.90;80.30;;;16.38;56.88;100345.22;4973658;28;20081;-85
2023/07/22 03:59:42;;;;;;;12.20;7.25;;;15.80;79.90;;;16.29;55.99;100339.47;4974623;28;20069;-85
2023/07/22 04:02:09;;;;;;;12.25;7.45;;;15.80;79.00;;;16.26;57.34;100344.56;4989758;28;20105;-85
2023/07/22 04:04:36;;;;;;;10.45;7.47;;;15.80;80.20;;;16.26;57.33;100340.00;4973353;28;20509;-85
2023/07/22 04:07:07;;;;;;;16.33;8.07;;;15.80;80.40;;;16.27;56.57;100352.38;4989778;28;20043;-85
2023/07/22 04:09:34;;;;;;;12.35;7.43;;;15.80;79.60;;;16.26;57.15;100352.63;4989391;28;20518;-85
2023/07/22 04:12:02;;;;;;;13.50;7.53;;;15.80;80.20;;;16.30;57.12;100351.88;4975362;28;20112;-85
2023/07/22 04:14:30;;;;;;;12.05;7.13;;;15.80;80.20;;;16.31;57.49;100350.81;4973634;28;20161;-85
2023/07/22 04:17:01;;;;;;;10.80;7.65;;;15.80;80.40;;;16.27;57.24;100359.63;4973546;28;20042;-85
2023/07/22 04:19:28;;;;;;;12.60;7.05;;;15.80;80.20;;;16.31;57.69;100353.50;4973320;28;20105;-85
2023/07/22 04:21:55;;;;;;;10.35;6.93;;;15.80;80.60;;;16.30;57.46;100351.88;4989452;28;20117;-85
2023/07/22 04:24:24;;;;;;;13.88;6.85;;;15.80;80.40;;;16.32;56.88;100355.13;4989555;28;20049;-85
2023/07/22 04:26:52;;;;;;;14.45;7.10;;;15.80;80.00;;;16.21;57.03;100356.88;4956877;28;20145;-85
2023/07/22 04:29:20;;;;;;;11.65;7.22;;;15.80;79.70;;;16.27;57.45;100359.63;4973059;28;20066;-85
2023/07/22 04:31:48;;;;;;;12.68;7.57;;;15.80;80.30;;;16.25;57.46;100351.00;4972839;28;20070;-85
2023/07/22 04:34:16;;;;;;;14.88;7.70;;;15.80;80.20;;;16.23;56.42;100354.75;4972425;28;20049;-85
2023/07/22 04:36:44;;;;;;;11.18;7.53;;;15.80;79.50;;;16.15;57.12;100357.06;4974027;28;20137;-85
2023/07/22 04:39:11;;;;;;;12.63;7.43;;;15.80;79.90;;;16.22;57.43;100352.31;4974049;28;20519;-85
2023/07/22 04:41:39;;;;;;;15.02;7.70;;;15.80;80.20;;;16.13;56.98;100351.13;4988960;28;20062;-85
2023/07/22 04:44:06;;;;;;;11.88;7.10;;;15.70;79.60;;;16.20;57.41;100365.19;4974110;28;20042;-85
2023/07/22 04:46:33;;;;;;;13.00;7.13;;;15.80;80.20;;;16.25;57.07;100357.22;4989045;28;20492;-85
2023/07/22 04:49:01;;;;;;;13.75;7.05;;;15.80;80.00;;;16.26;57.10;100356.13;4973836;28;20118;-85
2023/07/22 04:51:29;;;;;;;12.18;7.43;;;15.80;79.90;;;16.32;57.58;100357.00;4973966;28;20070;-85
2023/07/22 04:53:59;;;;;;;12.90;7.13;;;15.90;80.60;;;16.26;57.53;100356.13;4988944;28;20093;-85
2023/07/22 04:56:26;;;;;;;11.85;7.63;;;15.80;80.20;;;16.30;57.50;100365.34;4972431;28;20412;-85
2023/07/22 04:58:54;;;;;;;11.80;7.20;;;15.90;80.50;;;16.34;57.46;100357.56;4973790;28;20484;-85
2023/07/22 05:01:22;;;;;;;13.45;7.45;;;15.90;80.60;;;16.35;57.52;100357.31;4973847;28;20050;-85
2023/07/22 05:03:49;;;;;;;15.10;7.50;;;15.90;80.40;;;16.32;57.51;100357.81;4973771;28;20054;-85
2023/07/22 05:06:16;;;;;;;12.70;7.60;;;15.90;80.30;;;16.32;57.70;100357.81;4988756;28;20512;-86
2023/07/22 05:08:45;;;;;;;14.70;7.05;;;15.90;80.40;;;16.30;57.03;100354.56;4972395;28;20063;-86
2023/07/22 05:11:12;;;;;;;13.25;7.68;;;15.90;79.80;;;16.30;57.93;100357.28;4974090;28;20051;-86
2023/07/22 05:13:39;;;;;;;12.10;7.20;;;15.90;80.80;;;16.32;57.92;100352.44;4973750;28;20097;-86
2023/07/22 05:16:07;;;;;;;12.82;7.28;;;15.90;80.50;;;16.39;57.45;100353.03;4973809;28;20043;-85
2023/07/22 05:18:34;;;;;;;11.43;7.15;;;16.00;80.10;;;16.36;57.17;100361.63;4973444;28;20043;-86
2023/07/22 05:21:01;;;;;;;14.48;7.07;;;16.00;79.70;;;16.38;57.38;100356.81;4972072;28;20046;-86
2023/07/22 05:23:29;;;;;;;11.27;7.20;;;16.00;79.90;;;16.36;57.03;100358.94;4988504;28;20101;-86
2023/07/22 05:25:57;;;;;;;11.23;7.28;;;16.00;79.60;;;16.43;57.43;100358.75;4972296;28;20141;-86
2023/07/22 05:28:24;;;;;;;13.43;7.55;;;16.00;79.90;;;16.48;57.46;100362.28;4973303;28;20122;-85
2023/07/22 05:30:52;;;;;;;11.55;7.57;;;16.10;80.20;;;16.53;57.14;100363.41;4973370;28;20070;-86
2023/07/22 05:33:19;;;;;;;11.70;7.80;;;16.10;79.90;;;16.69;57.33;100365.22;4988441;28;20189;-86
2023/07/22 05:35:46;;;;;;;12.27;7.35;;;16.30;80.00;;;16.74;56.53;100362.63;4988514;28;20137;-86
2023/07/22 05:38:14;;;;;;;11.40;7.05;;;16.40;78.90;;;16.81;56.60;100375.88;4988244;28;20043;-86
2023/07/22 05:40:41;;;;;;;15.85;7.88;;;16.50;78.90;;;16.94;57.01;100381.66;4971651;28;20054;-86
2023/07/22 05:43:10;;;;;;;15.10;8.00;;;16.70;79.50;;;17.07;56.43;100369.63;4971951;28;20145;-86
2023/07/22 05:45:37;;;;;;;13.55;6.90;;;16.80;78.40;;;17.23;56.23;100371.41;4973064;28;20074;-86
2023/07/22 05:48:05;;;;;;;14.70;7.28;;;17.00;78.20;;;17.40;55.65;100373.94;4988070;28;20149;-85
2023/07/22 05:50:32;;;;;;;12.73;7.30;;;17.20;77.40;;;17.54;55.65;100366.22;4972779;28;20126;-86
2023/07/22 05:53:00;;;;;;;10.20;7.30;;;17.40;77.10;;;17.70;55.41;100375.22;4972813;28;20531;-86
2023/07/22 05:55:27;;;;;;;15.05;7.00;;;17.60;76.70;;;17.73;54.60;100377.44;4972802;28;20134;-85
2023/07/22 05:57:55;;;;;;;11.20;7.32;;;17.60;75.60;;;17.86;55.07;100374.28;4987714;28;20046;-86
2023/07/22 06:00:23;;;;;;;11.50;7.22;;;17.80;76.00;;;17.95;55.04;100369.97;4987466;28;20053;-85
2023/07/22 06:02:51;;;;;;;14.52;8.02;;;17.90;76.00;;;17.94;54.52;100368.38;4987680;28;20150;-86
2023/07/22 06:05:18;;;;;;;12.43;7.35;;;17.90;75.20;;;18.02;54.55;100378.66;4972980;28;20039;-86
2023/07/22 06:07:45;;;;;;;13.23;7.18;;;18.00;75.20;;;18.06;54.47;100376.25;4988010;28;20043;-86
2023/07/22 06:10:13;;;;;;;11.20;7.85;;;18.10;75.00;;;17.99;54.58;100368.38;4972571;28;20041;-86
2023/07/22 06:12:41;;;;;;;11.65;8.02;;;18.00;75.10;;;18.02;54.50;100364.38;4955714;28;20047;-86
2023/07/22 06:15:09;;;;;;;11.77;7.53;;;18.00;74.80;;;18.08;55.27;100376.00;4973040;28;20150;-86
2023/07/22 06:17:37;;;;;;;12.00;7.93;;;18.00;75.80;;;18.18;55.19;100371.44;4971368;28;20137;-86
2023/07/22 06:20:07;;;;;;;13.43;8.13;;;18.20;75.90;;;18.33;54.80;100367.19;4987585;28;20735;-85
2023/07/22 06:22:34;;;;;;;13.88;8.23;;;18.40;75.40;;;18.44;54.83;100371.53;4971486;28;20066;-86
2023/07/22 06:25:01;;;;;;;12.25;7.97;;;18.50;75.30;;;18.51;54.93;100366.69;4971239;28;20078;-86
2023/07/22 06:27:28;;;;;;;10.70;7.68;;;18.60;75.20;;;18.48;54.61;100362.63;4971332;28;20092;-86
2023/07/22 06:29:56;;;;;;;12.90;8.02;;;18.60;74.30;;;18.44;52.97;100374.22;4970812;28;20078;-86
2023/07/22 06:32:23;;;;;;;12.77;7.88;;;18.60;72.70;;;18.52;54.34;100362.91;4971044;28;20049;-86
2023/07/22 06:34:52;;;;;;;13.98;8.13;;;18.70;74.10;;;18.69;54.01;100362.69;4987334;28;20046;-86
2023/07/22 06:37:19;;;;;;;12.27;7.30;;;18.90;73.70;;;18.73;53.98;100364.59;4971306;28;20134;-86
2023/07/22 06:39:47;;;;;;;11.82;7.57;;;19.00;73.30;;;18.82;54.18;100372.19;4972165;28;20063;-86
2023/07/22 06:42:14;;;;;;;13.07;8.45;;;19.00;73.30;;;18.95;54.28;100363.56;4972500;28;20049;-86
2023/07/22 06:44:41;;;;;;;13.75;7.68;;;19.20;73.60;;;19.07;54.19;100366.00;4972481;28;20046;-86
2023/07/22 06:47:09;;;;;;;13.43;7.70;;;19.30;73.10;;;19.12;53.97;100361.38;4971233;28;20043;-86
2023/07/22 06:49:36;;;;;;;12.18;7.88;;;19.40;73.10;;;19.14;52.38;100364.66;4989466;28;20058;-86
2023/07/22 06:52:06;;;;;;;13.77;8.05;;;19.40;71.50;;;19.04;52.97;100364.66;4974973;28;20049;-86
2023/07/22 06:54:34;;;;;;;12.73;8.25;;;19.40;71.30;;;19.24;54.90;100359.25;4976283;28;20471;-86
2023/07/22 06:57:01;;;;;;;16.75;7.82;;;19.60;73.70;;;19.38;53.78;100361.41;4975206;28;20097;-86
2023/07/22 06:59:29;;;;;;;13.85;7.95;;;19.70;72.60;;;19.46;53.18;100356.22;4974671;28;20141;-86
2023/07/22 07:01:56;;;;;;;13.90;8.30;;;19.80;71.70;;;19.57;53.77;100359.75;4976183;28;20061;-86
2023/07/22 07:04:23;;;;;;;15.05;7.78;;;19.90;72.50;;;19.59;53.23;100354.06;4974644;28;20134;-86
2023/07/22 07:06:51;;;;;;;12.60;8.18;;;19.90;71.50;;;19.59;53.64;100348.66;4974318;28;20130;-86
2023/07/22 07:09:19;;;;;;;12.93;8.07;;;19.90;72.10;;;19.59;53.81;100357.56;4974352;28;20049;-86
2023/07/22 07:11:46;;;;;;;20.20;8.60;;;19.90;72.70;;;19.56;52.33;100350.78;4990701;28;20162;-86
2023/07/22 07:14:14;;;;;;;14.25;8.30;;;19.80;70.80;;;19.47;52.28;100348.91;4990599;28;20045;-86
2023/07/22 07:16:41;;;;;;;12.75;7.82;;;19.70;70.90;;;19.48;52.83;100351.38;4990417;28;20106;-86
2023/07/22 07:19:08;;;;;;;14.80;8.88;;;19.70;71.70;;;19.57;53.29;100343.50;4990456;28;20098;-86
2023/07/22 07:21:35;;;;;;;13.68;9.02;;;19.80;71.90;;;19.61;53.03;100352.72;4974317;28;20042;-86
2023/07/22 07:24:03;;;;;;;14.15;8.45;;;19.80;71.70;;;19.57;52.24;100346.22;4975553;28;20126;-86
2023/07/22 07:26:32;;;;;;;15.65;7.85;;;19.80;71.10;;;19.60;53.33;100355.69;4975643;28;20631;-86
2023/07/22 07:28:59;;;;;;;14.57;8.80;;;19.80;72.00;;;19.69;54.46;100348.66;4990101;28;20051;-86
2023/07/22 07:31:27;;;;;;;13.45;7.43;;;19.90;73.50;;;19.72;52.78;100358.94;4975370;28;20055;-86
2023/07/22 07:33:54;;;;;;;14.88;8.60;;;19.90;71.50;;;19.73;53.33;100363.25;4990441;28;20050;-86
2023/07/22 07:36:21;;;;;;;16.65;8.20;;;20.00;72.10;;;19.85;53.26;100357.53;4975604;28;20134;-86
2023/07/22 07:38:49;;;;;;;13.00;8.25;;;20.10;72.10;;;19.94;53.59;100361.28;4975216;28;20043;-86
2023/07/22 07:41:16;;;;;;;12.68;8.02;;;20.20;72.10;;;19.92;51.45;100364.28;4975541;28;20517;-86
2023/07/22 07:43:45;;;;;;;21.02;8.52;;;20.20;69.90;;;19.81;51.91;100357.25;4990114;28;20161;-86
2023/07/22 07:46:19;;;;;;;12.48;8.32;;;20.00;70.30;;;19.87;52.00;100360.78;4973803;28;20049;-86
2023/07/22 07:48:47;;;;;;;17.23;9.00;;;20.10;70.60;;;19.79;52.54;100360.25;4989971;28;20051;-87
2023/07/22 07:51:15;;;;;;;13.32;9.23;;;20.00;70.90;;;19.77;53.44;100362.44;4974963;28;20047;-86
2023/07/22 07:53:43;;;;;;;12.50;8.35;;;20.00;72.10;;;19.70;51.57;100361.09;4973839;28;20038;-86
2023/07/22 07:56:11;;;;;;;14.38;8.48;;;19.90;69.70;;;19.79;52.59;100359.44;4989913;28;20531;-86
2023/07/22 07:58:39;;;;;;;14.88;8.32;;;20.00;70.70;;;19.88;52.58;100371.31;4974651;28;20074;-86
2023/07/22 08:01:08;;;;;;;14.65;9.00;;;20.10;71.20;;;19.93;52.46;100376.72;4973700;28;20051;-86
2023/07/22 08:03:39;;;;;;;13.48;8.60;;;20.10;71.10;;;19.98;53.03;100365.06;4974990;28;20583;-86
2023/07/22 08:06:07;;;;;;;11.98;7.53;;;20.20;71.30;;;19.98;51.98;100371.28;4973939;28;20050;-86
2023/07/22 08:08:35;;;;;;;16.48;8.13;;;20.20;70.30;;;20.01;52.61;100365.34;4973749;28;20058;-86
2023/07/22 08:11:05;;;;;;;13.80;7.75;;;20.30;70.60;;;20.05;53.04;100371.00;4974784;28;20053;-87
2023/07/22 08:13:33;;;;;;;12.97;8.30;;;20.30;71.30;;;20.08;52.43;100372.34;4973584;28;20047;-86
2023/07/22 08:16:02;;;;;;;15.35;8.65;;;20.40;70.60;;;20.17;51.05;100373.41;4974710;28;20650;-86
2023/07/22 08:18:31;;;;;;;13.98;7.70;;;20.40;68.70;;;20.21;51.18;100367.16;4989519;28;20059;-86
2023/07/22 08:20:59;;;;;;;14.27;8.63;;;20.50;69.30;;;20.30;51.60;100359.22;4973257;28;20101;-86
2023/07/22 08:23:26;;;;;;;13.88;7.72;;;20.60;69.60;;;20.32;51.11;100366.00;4989529;28;20508;-87
2023/07/22 08:25:54;;;;;;;11.73;8.00;;;20.60;69.10;;;20.29;50.87;100363.84;4974426;28;20094;-87
2023/07/22 08:28:21;;;;;;;14.95;8.82;;;20.60;68.50;;;20.39;50.79;100367.59;4972927;28;20058;-85
2023/07/22 08:30:49;;;;;;;14.38;8.43;;;20.70;68.50;;;20.42;50.87;100373.28;4973122;28;20047;-84
2023/07/22 08:33:17;;;;;;;16.95;8.93;;;20.70;68.70;;;20.45;50.44;100364.59;4972538;28;20055;-84
2023/07/22 08:35:47;;;;;;;13.73;8.38;;;20.70;68.10;;;20.41;50.17;100365.44;4989189;28;20046;-84
2023/07/22 08:38:15;;;;;;;16.15;9.30;;;20.70;67.70;;;20.40;50.78;100367.34;4973981;28;20117;-84
2023/07/22 08:40:42;;;;;;;13.75;8.55;;;20.70;68.20;;;20.53;53.28;100366.72;4974097;28;20527;-84
2023/07/22 08:43:12;;;;;;;13.90;7.95;;;20.80;70.80;;;20.64;51.04;100372.09;4974367;28;20134;-84
2023/07/22 08:45:40;;;;;;;14.45;8.57;;;20.90;68.60;;;20.69;52.32;100361.22;4974094;28;20053;-84
2023/07/22 08:48:09;;;;;;;12.93;7.75;;;21.00;69.50;;;20.72;50.20;100366.88;4972832;28;20531;-84
2023/07/22 08:50:45;;;;;;;12.98;8.10;;;21.10;67.40;;;20.72;48.96;100361.47;4973883;28;20900;-84
2023/07/22 08:53:14;;;;;;;12.45;8.02;;;21.10;65.60;;;20.76;49.68;100356.31;4974057;28;20170;-84
2023/07/22 08:55:42;;;;;;;16.58;8.27;;;21.10;66.80;;;20.81;50.49;100358.97;4973003;28;20043;-84
2023/07/22 08:58:10;;;;;;;13.32;7.45;;;21.10;67.70;;;20.88;49.57;100350.50;4973615;28;20065;-84
2023/07/22 09:00:39;;;;;;;11.48;6.97;;;21.20;66.20;;;20.89;49.14;100361.09;4972345;28;20085;-85
2023/07/22 09:03:07;;;;;;;13.68;7.40;;;21.20;65.80;;;20.93;50.02;100354.00;4972579;28;20327;-84
2023/07/22 09:05:39;;;;;;;8.65;6.07;;;21.30;67.70;;;21.09;49.40;100355.50;4972413;28;20495;-84
2023/07/22 09:08:08;;;;;;;12.23;6.90;;;21.50;66.20;;;21.13;48.13;100354.94;4973737;28;20067;-84
2023/07/22 09:10:38;;;;;;;11.70;5.95;;;21.60;64.20;;;20.97;46.82;100346.91;4973609;28;20463;-84
2023/07/22 09:13:06;;;;;;;12.80;6.82;;;21.40;62.60;;;20.81;49.68;100353.56;4973411;28;20038;-84
2023/07/22 09:15:36;;;;;;;9.70;6.30;;;21.20;66.00;;;20.77;49.30;100353.31;4972476;28;20050;-84
2023/07/22 09:18:04;;;;;;;10.87;6.60;;;21.10;65.80;;;20.75;49.91;100360.91;4988638;28;20047;-84
2023/07/22 09:20:32;;;;;;;12.82;6.20;;;21.00;66.40;;;20.76;49.84;100359.00;4972362;28;20043;-84
2023/07/22 09:23:01;;;;;;;11.27;7.07;;;21.00;66.90;;;20.65;50.01;100371.81;4988724;28;20046;-84
2023/07/22 09:25:30;;;;;;;13.93;6.65;;;20.90;67.00;;;20.58;48.34;100369.41;4972570;28;20064;-84
2023/07/22 09:28:00;;;;;;;13.23;6.75;;;20.80;65.10;;;20.57;49.77;100367.78;4973771;28;20578;-84
2023/07/22 09:30:30;;;;;;;9.60;6.43;;;20.80;67.20;;;20.57;49.17;100361.56;4972149;28;20059;-84
2023/07/22 09:33:00;;;;;;;10.35;6.70;;;20.80;67.00;;;20.60;48.99;100368.34;4988454;28;20049;-84
2023/07/22 09:35:29;;;;;;;9.93;6.15;;;20.80;66.20;;;20.57;48.62;100367.78;4973404;28;20654;-84
2023/07/22 09:37:57;;;;;;;9.20;6.40;;;20.80;65.70;;;20.61;49.00;100359.94;4971900;28;20141;-84
2023/07/22 09:40:26;;;;;;;8.25;5.78;;;20.80;66.20;;;20.74;49.37;100355.75;4971601;28;20049;-84
2023/07/22 09:42:56;;;;;;;9.38;5.25;;;21.10;66.10;;;20.89;49.56;100363.00;4971873;28;20063;-84
2023/07/22 09:45:26;;;;;;;8.65;5.65;;;21.20;66.20;;;20.95;48.29;100359.16;4971881;28;20042;-84
2023/07/22 09:47:56;;;;;;;10.25;5.25;;;21.30;64.70;;;21.00;48.98;100353.69;4973315;28;20113;-84
2023/07/22 09:50:25;;;;;;;8.38;5.72;;;21.40;65.80;;;21.03;49.17;100359.38;4971478;28;20150;-84
2023/07/22 09:52:54;;;;;;;8.98;5.88;;;21.40;65.80;;;21.08;50.52;100356.59;4973243;28;20035;-84
2023/07/22 09:55:23;;;;;;;9.45;5.60;;;21.50;67.00;;;21.01;47.13;100355.31;4973223;28;20125;-84
2023/07/22 09:57:54;;;;;;;8.95;5.68;;;21.40;62.90;;;20.96;47.25;100350.72;4973049;28;20043;-84
2023/07/22 10:00:25;;;;;;;8.55;5.43;;;21.30;63.40;;;20.80;49.46;100352.75;4971707;28;20054;-84
2023/07/22 10:02:56;;;;;;;;;;;21.20;65.60;;;20.91;49.13;100353.47;4972203;28;20627;-84
2023/07/22 10:05:25;;;;;;;11.02;5.72;;;21.20;65.60;;;20.85;48.41;100354.63;4987838;28;20383;-84
2023/07/22 10:07:55;;;;;;;9.38;5.43;;;21.20;63.90;;;20.81;47.73;100358.97;4987597;28;20583;-84
2023/07/22 10:10:26;;;;;;;9.82;5.60;;;21.10;64.30;;;21.00;50.58;100357.22;4971429;28;20137;-84